Time;durP1;ratioP1;P1;durP2;ratioP2;P2;SDS_P1;SDS_P2;PMS_P1;PMS_P2;Temp;Humidity;BMP_temperature;BMP_pressure;BME280_temperature;BME280_humidity;BME280_pressure;Samples;Min_cycle;Max_cycle;Signal;HPM_P1;HPM_P2
2023/03/10 00:01:34;;;;;;;26.77;17.67;;;;;;;;;;4850061;29;20084;-75
2023/03/10 00:04:01;;;;;;;28.75;17.17;;;;;;;;;;4847629;29;20060;-75
2023/03/10 00:06:29;;;;;;;26.70;16.80;;;;;;;;;;4847852;29;20595;-75
2023/03/10 00:08:55;;;;;;;26.38;17.40;;;;;;;;;;4830196;29;20044;-75
2023/03/10 00:11:22;;;;;;;26.38;16.95;;;;;;;;;;4845501;29;20088;-75
2023/03/10 00:13:48;;;;;;;26.60;16.30;;;;;;;;;;4860014;29;20413;-75
2023/03/10 00:16:17;;;;;;;24.15;16.63;;;;;;;;;;4845198;29;20045;-75
2023/03/10 00:18:44;;;;;;;27.00;17.48;;;;;;;;;;4842864;29;20052;-75
2023/03/10 00:21:17;;;;;;;25.10;16.40;;;;;;;;;;4846768;29;20528;-75
2023/03/10 00:23:43;;;;;;;23.92;16.02;;;;;;;;;;4846361;29;20683;-74
2023/03/10 00:26:11;;;;;;;25.05;16.42;;;;;;;;;;4843040;29;20055;-75
2023/03/10 00:28:38;;;;;;;22.60;15.73;;;;;;;;;;4842844;29;20532;-75
2023/03/10 00:31:06;;;;;;;23.95;15.70;;;;;;;;;;4845380;29;20056;-74
2023/03/10 00:33:33;;;;;;;22.55;15.43;;;;;;;;;;4828652;29;20049;-75
2023/03/10 00:36:08;;;;;;;25.63;16.63;;;;;;;;;;4859873;29;20065;-75
2023/03/10 00:38:35;;;;;;;27.17;17.33;;;;;;;;;;4828816;29;20235;-74
2023/03/10 00:41:02;;;;;;;26.90;15.93;;;;;;;;;;4845616;29;20053;-74
2023/03/10 00:43:28;;;;;;;22.58;15.55;;;;;;;;;;4830011;29;20044;-74
2023/03/10 00:45:55;;;;;;;22.30;15.50;;;;;;;;;;4862010;29;20413;-74
2023/03/10 00:48:21;;;;;;;25.25;16.80;;;;;;;;;;4846818;29;20080;-75
2023/03/10 00:50:47;;;;;;;25.83;14.70;;;;;;;;;;4847808;29;20405;-75
2023/03/10 00:53:13;;;;;;;23.80;16.10;;;;;;;;;;4848119;29;20091;-75
2023/03/10 00:55:39;;;;;;;25.67;16.08;;;;;;;;;;4846812;29;20076;-74
2023/03/10 00:58:05;;;;;;;26.88;17.25;;;;;;;;;;4846475;29;20258;-75
2023/03/10 01:00:31;;;;;;;25.80;16.17;;;;;;;;;;4844873;29;21893;-75
2023/03/10 01:02:58;;;;;;;27.83;16.55;;;;;;;;;;4844934;29;20091;-75
2023/03/10 01:05:24;;;;;;;28.13;17.60;;;;;;;;;;4845366;29;20463;-75
2023/03/10 01:07:50;;;;;;;25.27;17.02;;;;;;;;;;4848189;29;20143;-75
2023/03/10 01:10:17;;;;;;;26.65;17.63;;;;;;;;;;4845637;29;20064;-75
2023/03/10 01:12:43;;;;;;;27.38;17.35;;;;;;;;;;4844396;29;20640;-75
2023/03/10 01:15:10;;;;;;;23.67;16.35;;;;;;;;;;4847012;29;20088;-75
2023/03/10 01:17:36;;;;;;;24.52;16.25;;;;;;;;;;4844490;29;20693;-75
2023/03/10 01:20:06;;;;;;;26.70;17.23;;;;;;;;;;4845195;29;20053;-75
2023/03/10 01:22:32;;;;;;;28.98;18.33;;;;;;;;;;4847987;29;20082;-75
2023/03/10 01:24:58;;;;;;;28.08;18.20;;;;;;;;;;4848908;29;20083;-75
2023/03/10 01:27:24;;;;;;;29.33;18.40;;;;;;;;;;4830716;29;20159;-75
2023/03/10 01:29:50;;;;;;;30.27;19.30;;;;;;;;;;4828958;29;20056;-75
2023/03/10 01:32:16;;;;;;;25.10;17.40;;;;;;;;;;4843477;29;20599;-76
2023/03/10 01:34:42;;;;;;;26.38;15.75;;;;;;;;;;4841349;29;20087;-75
2023/03/10 01:37:08;;;;;;;27.15;16.95;;;;;;;;;;4833912;29;20041;-75
2023/03/10 01:39:34;;;;;;;22.33;15.52;;;;;;;;;;4847723;29;20048;-75
2023/03/10 01:42:00;;;;;;;24.45;16.05;;;;;;;;;;4848384;29;20051;-74
2023/03/10 01:44:26;;;;;;;28.75;16.35;;;;;;;;;;4843696;29;20048;-74
2023/03/10 01:46:53;;;;;;;26.27;16.83;;;;;;;;;;4842967;29;20053;-75
2023/03/10 01:49:32;;;;;;;24.83;15.90;;;;;;;;;;4843649;29;20057;-75
2023/03/10 01:52:10;;;;;;;26.38;16.98;;;;;;;;;;4825509;29;20406;-75
2023/03/10 01:54:41;;;;;;;25.40;16.58;;;;;;;;;;4845324;29;20049;-75
2023/03/10 01:57:07;;;;;;;26.27;17.05;;;;;;;;;;4842324;29;20159;-74
2023/03/10 01:59:34;;;;;;;26.95;17.30;;;;;;;;;;4842814;29;20113;-75
2023/03/10 02:02:01;;;;;;;25.77;16.33;;;;;;;;;;4860889;29;20165;-75
2023/03/10 02:04:35;;;;;;;25.73;16.38;;;;;;;;;;4843756;29;22734;-75
2023/03/10 02:07:03;;;;;;;22.90;15.75;;;;;;;;;;4835317;29;20517;-75
2023/03/10 02:09:29;;;;;;;26.52;17.52;;;;;;;;;;4841650;29;20049;-76
2023/03/10 02:11:57;;;;;;;28.60;18.55;;;;;;;;;;4843562;29;20080;-75
2023/03/10 02:14:23;;;;;;;27.15;17.35;;;;;;;;;;4842958;29;20049;-75
2023/03/10 02:16:49;;;;;;;28.10;18.08;;;;;;;;;;4842901;29;20076;-75
2023/03/10 02:19:31;;;;;;;29.20;19.95;;;;;;;;;;4844057;29;20391;-75
2023/03/10 02:22:02;;;;;;;31.45;20.02;;;;;;;;;;4845583;29;20070;-75
2023/03/10 02:24:35;;;;;;;27.05;18.23;;;;;;;;;;4838963;29;20513;-75
2023/03/10 02:27:02;;;;;;;28.40;19.05;;;;;;;;;;4843900;29;20057;-75
2023/03/10 02:29:50;;;;;;;29.60;19.30;;;;;;;;;;4841906;29;20056;-75
2023/03/10 02:32:17;;;;;;;32.20;21.13;;;;;;;;;;4848917;29;20383;-75
2023/03/10 02:34:43;;;;;;;31.80;20.00;;;;;;;;;;4842010;29;20072;-75
2023/03/10 02:37:17;;;;;;;28.92;18.85;;;;;;;;;;4847142;29;20820;-75
2023/03/10 02:39:43;;;;;;;28.92;18.35;;;;;;;;;;4843427;29;20226;-75
2023/03/10 02:42:11;;;;;;;29.65;19.45;;;;;;;;;;4845475;29;20048;-75
2023/03/10 02:44:38;;;;;;;32.13;20.50;;;;;;;;;;4849187;29;20092;-75
2023/03/10 02:47:04;;;;;;;30.75;20.08;;;;;;;;;;4848858;29;20547;-75
2023/03/10 02:49:30;;;;;;;30.00;19.83;;;;;;;;;;4839909;29;20052;-75
2023/03/10 02:51:57;;;;;;;28.98;18.83;;;;;;;;;;4864449;29;20493;-75
2023/03/10 02:54:23;;;;;;;27.23;18.05;;;;;;;;;;4832692;29;20383;-75
2023/03/10 02:56:49;;;;;;;33.70;19.00;;;;;;;;;;4848524;29;20044;-75
2023/03/10 02:59:15;;;;;;;29.35;19.00;;;;;;;;;;4848437;29;20191;-75
2023/03/10 03:01:41;;;;;;;29.10;18.90;;;;;;;;;;4847868;29;20058;-75
2023/03/10 03:04:07;;;;;;;31.17;19.30;;;;;;;;;;4831152;29;20053;-75
2023/03/10 03:06:33;;;;;;;29.52;19.30;;;;;;;;;;4847775;29;20569;-75
2023/03/10 03:09:00;;;;;;;28.73;18.60;;;;;;;;;;4832827;29;21452;-74
2023/03/10 03:11:26;;;;;;;27.90;18.45;;;;;;;;;;4843829;29;20048;-75
2023/03/10 03:13:52;;;;;;;29.45;19.00;;;;;;;;;;4841596;29;20477;-75
2023/03/10 03:16:18;;;;;;;28.42;18.88;;;;;;;;;;4840656;29;20055;-75
2023/03/10 03:18:44;;;;;;;30.27;18.38;;;;;;;;;;4841434;29;20041;-76
2023/03/10 03:21:11;;;;;;;35.65;20.08;;;;;;;;;;4854002;29;20051;-74
2023/03/10 03:23:38;;;;;;;31.92;19.83;;;;;;;;;;4840975;29;20046;-75
2023/03/10 03:26:05;;;;;;;31.05;21.08;;;;;;;;;;4843143;29;20059;-75
2023/03/10 03:28:31;;;;;;;27.80;17.65;;;;;;;;;;4850639;29;20693;-74
2023/03/10 03:30:57;;;;;;;33.83;19.95;;;;;;;;;;4842734;29;20072;-74
2023/03/10 03:33:23;;;;;;;31.73;21.30;;;;;;;;;;4825384;29;20053;-75
2023/03/10 03:35:49;;;;;;;31.33;19.73;;;;;;;;;;4842880;29;20546;-75
2023/03/10 03:38:15;;;;;;;32.10;20.65;;;;;;;;;;4819798;29;20116;-75
2023/03/10 03:40:43;;;;;;;33.97;22.10;;;;;;;;;;4835529;29;20049;-75
2023/03/10 03:43:11;;;;;;;35.83;22.42;;;;;;;;;;4804720;29;20401;-75
2023/03/10 03:45:37;;;;;;;39.90;24.55;;;;;;;;;;4841729;29;20759;-75
2023/03/10 03:48:03;;;;;;;36.03;22.90;;;;;;;;;;4804292;29;20187;-75
2023/03/10 03:50:29;;;;;;;40.63;23.60;;;;;;;;;;4834215;29;20046;-75
2023/03/10 03:52:56;;;;;;;42.42;25.92;;;;;;;;;;4817829;29;20048;-75
2023/03/10 03:55:22;;;;;;;46.08;26.50;;;;;;;;;;4835274;29;20503;-75
2023/03/10 03:57:49;;;;;;;48.08;28.17;;;;;;;;;;4835873;29;20179;-75
2023/03/10 04:00:17;;;;;;;49.83;29.10;;;;;;;;;;4828526;29;20112;-75
2023/03/10 04:02:43;;;;;;;53.67;29.05;;;;;;;;;;4838307;29;20049;-75
2023/03/10 04:05:09;;;;;;;49.83;29.17;;;;;;;;;;4840214;29;20045;-75
2023/03/10 04:07:37;;;;;;;51.55;30.30;;;;;;;;;;4842112;29;20049;-75
2023/03/10 04:10:04;;;;;;;52.40;28.98;;;;;;;;;;4839196;29;20049;-75
2023/03/10 04:12:30;;;;;;;57.40;31.58;;;;;;;;;;4823952;29;20042;-76
2023/03/10 04:14:56;;;;;;;64.15;33.75;;;;;;;;;;4826093;29;21769;-75
2023/03/10 04:17:22;;;;;;;60.67;33.00;;;;;;;;;;4817744;29;20105;-75
2023/03/10 04:19:48;;;;;;;64.82;32.30;;;;;;;;;;4842944;29;20343;-75
2023/03/10 04:22:14;;;;;;;62.42;33.97;;;;;;;;;;4841230;29;20053;-75
2023/03/10 04:24:40;;;;;;;64.00;35.28;;;;;;;;;;4839685;29;20065;-75
2023/03/10 04:27:08;;;;;;;64.43;33.50;;;;;;;;;;4840736;29;20690;-75
2023/03/10 04:29:35;;;;;;;58.63;31.92;;;;;;;;;;4801865;29;20057;-75
2023/03/10 04:32:01;;;;;;;62.03;34.60;;;;;;;;;;4830332;29;20060;-75
2023/03/10 04:34:27;;;;;;;58.80;34.55;;;;;;;;;;4831545;29;20122;-75
2023/03/10 04:36:54;;;;;;;63.25;35.88;;;;;;;;;;4833422;29;21173;-75
2023/03/10 04:39:20;;;;;;;58.53;33.00;;;;;;;;;;4831951;29;20411;-75
2023/03/10 04:41:46;;;;;;;57.72;34.03;;;;;;;;;;4832722;29;20057;-75
2023/03/10 04:44:12;;;;;;;55.17;30.17;;;;;;;;;;4836376;29;20049;-75
2023/03/10 04:46:38;;;;;;;59.42;32.58;;;;;;;;;;4837453;29;20055;-75
2023/03/10 04:49:04;;;;;;;53.08;29.85;;;;;;;;;;4840292;29;20060;-75
2023/03/10 04:51:30;;;;;;;51.00;31.55;;;;;;;;;;4841484;29;20498;-74
2023/03/10 04:53:56;;;;;;;48.40;29.38;;;;;;;;;;4839655;29;20046;-75
2023/03/10 04:56:23;;;;;;;45.58;27.17;;;;;;;;;;4836243;29;20647;-75
2023/03/10 04:58:50;;;;;;;45.72;27.88;;;;;;;;;;4837792;29;20050;-75
2023/03/10 05:01:16;;;;;;;43.65;27.25;;;;;;;;;;4838308;29;20409;-75
2023/03/10 05:03:42;;;;;;;40.53;24.88;;;;;;;;;;4841463;29;20061;-75
2023/03/10 05:06:12;;;;;;;44.95;25.50;;;;;;;;;;4837739;29;20049;-75
2023/03/10 05:08:38;;;;;;;37.40;23.35;;;;;;;;;;4842201;29;20097;-75
2023/03/10 05:11:08;;;;;;;38.90;24.63;;;;;;;;;;4840409;29;20604;-75
2023/03/10 05:13:34;;;;;;;33.83;21.77;;;;;;;;;;4840910;29;21791;-75
2023/03/10 05:16:00;;;;;;;34.75;21.50;;;;;;;;;;4831420;29;20045;-75
2023/03/10 05:18:26;;;;;;;34.55;21.30;;;;;;;;;;4844348;29;20045;-75
2023/03/10 05:20:56;;;;;;;36.00;22.85;;;;;;;;;;4846827;29;20121;-74
2023/03/10 05:23:22;;;;;;;32.05;20.58;;;;;;;;;;4841791;29;20045;-75
2023/03/10 05:25:49;;;;;;;34.38;21.35;;;;;;;;;;4827534;29;20678;-74
2023/03/10 05:28:15;;;;;;;32.22;19.90;;;;;;;;;;4855405;29;20049;-75
2023/03/10 05:30:41;;;;;;;32.30;19.60;;;;;;;;;;4828369;29;20060;-75
2023/03/10 05:33:07;;;;;;;30.13;19.15;;;;;;;;;;4840758;29;20128;-76
2023/03/10 05:35:33;;;;;;;30.98;18.65;;;;;;;;;;4843196;29;20053;-75
2023/03/10 05:37:59;;;;;;;27.67;18.63;;;;;;;;;;4838586;29;20672;-76
2023/03/10 05:40:25;;;;;;;27.70;19.08;;;;;;;;;;4841299;29;20525;-76
2023/03/10 05:42:52;;;;;;;30.70;19.25;;;;;;;;;;4841374;29;20060;-75
2023/03/10 05:45:18;;;;;;;29.92;19.30;;;;;;;;;;4830864;29;20105;-75
2023/03/10 05:47:47;;;;;;;30.80;18.50;;;;;;;;;;4839410;29;20438;-75
2023/03/10 05:50:13;;;;;;;32.40;20.38;;;;;;;;;;4842785;29;20052;-75
2023/03/10 05:52:40;;;;;;;34.35;21.75;;;;;;;;;;4842888;29;20056;-75
2023/03/10 05:55:07;;;;;;;31.55;20.02;;;;;;;;;;4840357;29;22916;-75
2023/03/10 05:57:33;;;;;;;36.17;21.10;;;;;;;;;;4856533;29;20120;-75
2023/03/10 05:59:59;;;;;;;34.40;21.60;;;;;;;;;;4841340;29;20144;-75
2023/03/10 06:02:25;;;;;;;34.05;19.85;;;;;;;;;;4845613;29;20414;-75
2023/03/10 06:04:51;;;;;;;38.85;22.52;;;;;;;;;;4861483;29;20076;-76
2023/03/10 06:07:17;;;;;;;36.40;22.92;;;;;;;;;;4845996;29;20049;-75
2023/03/10 06:09:44;;;;;;;39.63;23.15;;;;;;;;;;4849531;29;22442;-75
2023/03/10 06:12:10;;;;;;;42.65;23.60;;;;;;;;;;4850877;29;20045;-75
2023/03/10 06:14:37;;;;;;;37.30;22.00;;;;;;;;;;4854004;29;20038;-75
2023/03/10 06:17:03;;;;;;;37.40;23.25;;;;;;;;;;4850616;29;20698;-75
2023/03/10 06:19:29;;;;;;;40.13;23.23;;;;;;;;;;4849384;29;20132;-75
2023/03/10 06:21:55;;;;;;;44.47;25.00;;;;;;;;;;4850321;29;20053;-75
2023/03/10 06:24:22;;;;;;;45.67;25.67;;;;;;;;;;4838317;29;20168;-75
2023/03/10 06:26:48;;;;;;;49.30;27.25;;;;;;;;;;4852615;29;20049;-75
2023/03/10 06:29:15;;;;;;;48.92;28.10;;;;;;;;;;4853016;29;20463;-75
2023/03/10 06:31:41;;;;;;;48.25;26.40;;;;;;;;;;4848268;29;20046;-75
2023/03/10 06:34:07;;;;;;;48.60;26.13;;;;;;;;;;4845446;29;20041;-75
2023/03/10 06:36:33;;;;;;;48.95;27.30;;;;;;;;;;4853773;29;20045;-75
2023/03/10 06:38:59;;;;;;;45.92;25.23;;;;;;;;;;4849726;29;20132;-75
2023/03/10 06:41:26;;;;;;;51.35;27.23;;;;;;;;;;4851303;29;20045;-74
2023/03/10 06:43:53;;;;;;;49.42;26.95;;;;;;;;;;4849470;29;21074;-74
2023/03/10 06:46:19;;;;;;;42.28;24.02;;;;;;;;;;4851472;29;20041;-75
2023/03/10 06:48:45;;;;;;;43.90;23.80;;;;;;;;;;4829454;29;20037;-76
2023/03/10 06:51:16;;;;;;;44.30;24.25;;;;;;;;;;4855384;29;20104;-75
2023/03/10 06:53:42;;;;;;;46.10;25.95;;;;;;;;;;4838872;29;20041;-75
2023/03/10 06:56:11;;;;;;;46.90;26.27;;;;;;;;;;4855331;29;20041;-74
2023/03/10 06:58:37;;;;;;;47.05;24.10;;;;;;;;;;4854038;29;20045;-75
2023/03/10 07:01:04;;;;;;;65.00;26.80;;;;;;;;;;4852356;29;20061;-79
2023/03/10 07:03:31;;;;;;;46.63;23.48;;;;;;;;;;4855085;29;20061;-78
2023/03/10 07:05:58;;;;;;;44.65;24.88;;;;;;;;;;4845636;29;20057;-78
2023/03/10 07:08:24;;;;;;;51.33;24.52;;;;;;;;;;4856963;29;20052;-76
2023/03/10 07:10:50;;;;;;;54.65;25.20;;;;;;;;;;4857730;29;20053;-77
2023/03/10 07:13:16;;;;;;;57.83;27.02;;;;;;;;;;4863843;29;20739;-77
2023/03/10 07:15:43;;;;;;;60.78;26.98;;;;;;;;;;4855498;29;20052;-77
2023/03/10 07:18:09;;;;;;;69.43;26.92;;;;;;;;;;4848142;29;20065;-77
2023/03/10 07:20:38;;;;;;;64.82;29.65;;;;;;;;;;4852135;29;20053;-77
2023/03/10 07:23:04;;;;;;;57.83;27.00;;;;;;;;;;4854476;29;20145;-77
2023/03/10 07:25:30;;;;;;;70.90;29.70;;;;;;;;;;4857776;29;20066;-77
2023/03/10 07:27:56;;;;;;;64.53;30.52;;;;;;;;;;4853567;29;20136;-76
2023/03/10 07:30:22;;;;;;;65.68;29.02;;;;;;;;;;4853070;29;20051;-77
2023/03/10 07:32:51;;;;;;;71.65;29.13;;;;;;;;;;4841854;29;20049;-78
2023/03/10 07:35:18;;;;;;;81.18;34.05;;;;;;;;;;4843175;29;20053;-77
2023/03/10 07:37:44;;;;;;;70.47;29.08;;;;;;;;;;4852807;29;20108;-78
2023/03/10 07:40:10;;;;;;;75.15;29.15;;;;;;;;;;4839133;29;20045;-78
2023/03/10 07:42:36;;;;;;;73.85;27.73;;;;;;;;;;4855488;29;20060;-78
2023/03/10 07:45:03;;;;;;;76.07;30.05;;;;;;;;;;4853380;29;20119;-79
2023/03/10 07:47:29;;;;;;;75.47;27.80;;;;;;;;;;4853745;29;20041;-80
2023/03/10 07:49:55;;;;;;;79.15;29.67;;;;;;;;;;4840519;29;20042;-75
2023/03/10 07:52:21;;;;;;;90.32;32.65;;;;;;;;;;4849149;29;20157;-75
2023/03/10 07:54:47;;;;;;;96.22;33.83;;;;;;;;;;4833735;29;20092;-75
2023/03/10 07:57:14;;;;;;;99.30;32.85;;;;;;;;;;4846987;29;20061;-75
2023/03/10 07:59:40;;;;;;;100.85;33.40;;;;;;;;;;4863601;29;20081;-72
2023/03/10 08:02:06;;;;;;;102.07;36.05;;;;;;;;;;4867257;29;22510;-73
2023/03/10 08:04:32;;;;;;;97.72;33.28;;;;;;;;;;4851290;29;20055;-72
2023/03/10 08:07:01;;;;;;;95.75;32.45;;;;;;;;;;4851530;29;20056;-73
2023/03/10 08:09:28;;;;;;;100.03;35.03;;;;;;;;;;4860928;29;20499;-73
2023/03/10 08:11:54;;;;;;;93.60;32.38;;;;;;;;;;4819179;29;20053;-73
2023/03/10 08:14:22;;;;;;;106.15;33.28;;;;;;;;;;4849844;29;20073;-73
2023/03/10 08:16:49;;;;;;;104.55;34.15;;;;;;;;;;4853833;29;20060;-74
2023/03/10 08:19:15;;;;;;;117.55;33.30;;;;;;;;;;4869424;29;20044;-74
2023/03/10 08:21:42;;;;;;;110.55;34.67;;;;;;;;;;4839844;29;20400;-74
2023/03/10 08:24:09;;;;;;;109.53;32.88;;;;;;;;;;4852711;29;20048;-74
2023/03/10 08:26:35;;;;;;;106.20;36.90;;;;;;;;;;4852834;29;20417;-74
2023/03/10 08:29:01;;;;;;;111.88;34.70;;;;;;;;;;4837076;29;20637;-74
2023/03/10 08:31:27;;;;;;;106.30;34.08;;;;;;;;;;4851277;29;20548;-73
2023/03/10 08:33:57;;;;;;;102.45;34.00;;;;;;;;;;4847643;29;20059;-73
2023/03/10 08:36:24;;;;;;;94.75;33.63;;;;;;;;;;4872959;29;20175;-74
2023/03/10 08:38:51;;;;;;;99.40;33.97;;;;;;;;;;4839234;29;20103;-74
2023/03/10 08:41:23;;;;;;;103.18;33.30;;;;;;;;;;4853199;29;20135;-74
2023/03/10 08:43:50;;;;;;;96.18;34.17;;;;;;;;;;4853646;29;20107;-75
2023/03/10 08:46:17;;;;;;;97.78;33.22;;;;;;;;;;4838479;29;20055;-74
2023/03/10 08:48:43;;;;;;;87.32;29.92;;;;;;;;;;4854247;29;20056;-74
2023/03/10 08:51:10;;;;;;;87.20;31.48;;;;;;;;;;4852817;29;20048;-74
2023/03/10 08:53:37;;;;;;;81.05;30.55;;;;;;;;;;4845714;29;20048;-74
2023/03/10 08:56:04;;;;;;;75.18;28.85;;;;;;;;;;4852281;29;20052;-74
2023/03/10 08:58:30;;;;;;;66.00;27.80;;;;;;;;;;4850273;29;20111;-74
2023/03/10 09:00:56;;;;;;;69.22;28.13;;;;;;;;;;4848614;29;20068;-74
2023/03/10 09:03:22;;;;;;;65.75;28.88;;;;;;;;;;4847944;29;20052;-73
2023/03/10 09:05:48;;;;;;;65.25;26.48;;;;;;;;;;4847901;29;20481;-73
2023/03/10 09:08:14;;;;;;;55.53;23.90;;;;;;;;;;4849887;29;20706;-73
2023/03/10 09:10:41;;;;;;;62.92;28.73;;;;;;;;;;4832013;29;20068;-73
2023/03/10 09:13:08;;;;;;;61.80;25.58;;;;;;;;;;4846031;29;20506;-73
2023/03/10 09:15:34;;;;;;;74.97;28.95;;;;;;;;;;4848200;29;20105;-74
2023/03/10 09:18:01;;;;;;;57.80;26.30;;;;;;;;;;4848169;29;20049;-73
2023/03/10 09:20:27;;;;;;;62.80;26.27;;;;;;;;;;4849440;29;20052;-73
2023/03/10 09:22:54;;;;;;;58.65;25.10;;;;;;;;;;4859719;29;20053;-74
2023/03/10 09:25:20;;;;;;;48.10;22.98;;;;;;;;;;4848089;29;20754;-74
2023/03/10 09:27:46;;;;;;;55.92;26.13;;;;;;;;;;4848786;29;20080;-75
2023/03/10 09:30:13;;;;;;;64.95;27.15;;;;;;;;;;4849294;29;20482;-75
2023/03/10 09:32:39;;;;;;;59.25;25.92;;;;;;;;;;4838103;29;20072;-75
2023/03/10 09:35:05;;;;;;;57.10;25.02;;;;;;;;;;4838040;29;20096;-75
2023/03/10 09:37:37;;;;;;;59.22;25.42;;;;;;;;;;4842664;29;20141;-75
2023/03/10 09:40:04;;;;;;;53.20;23.42;;;;;;;;;;4838512;29;20068;-75
2023/03/10 09:42:34;;;;;;;57.45;25.48;;;;;;;;;;4849495;29;20042;-74
2023/03/10 09:45:10;;;;;;;60.92;26.30;;;;;;;;;;4863402;29;20064;-75
2023/03/10 09:47:42;;;;;;;53.13;25.40;;;;;;;;;;4847016;29;20053;-74
2023/03/10 09:50:32;;;;;;;57.38;23.27;;;;;;;;;;4851664;29;20144;-74
2023/03/10 09:53:01;;;;;;;52.75;25.05;;;;;;;;;;4837115;29;22006;-74
2023/03/10 09:55:39;;;;;;;62.10;25.50;;;;;;;;;;4850751;29;20049;-74
2023/03/10 09:58:08;;;;;;;57.97;24.90;;;;;;;;;;4853182;29;20053;-74
2023/03/10 10:00:39;;;;;;;46.28;21.80;;;;;;;;;;4850925;29;20065;-74
2023/03/10 10:03:25;;;;;;;52.10;24.83;;;;;;;;;;4849500;29;20537;-75
2023/03/10 10:05:52;;;;;;;45.72;23.23;;;;;;;;;;4848174;29;20053;-74
2023/03/10 10:08:21;;;;;;;50.38;22.42;;;;;;;;;;4836364;29;20105;-74
2023/03/10 10:10:50;;;;;;;51.05;23.52;;;;;;;;;;4850947;29;20049;-74
2023/03/10 10:13:16;;;;;;;50.70;24.05;;;;;;;;;;4852205;29;20045;-75
2023/03/10 10:15:48;;;;;;;47.63;22.73;;;;;;;;;;4849153;29;20042;-74
2023/03/10 10:18:15;;;;;;;46.45;23.20;;;;;;;;;;4848973;29;20098;-75
2023/03/10 10:20:52;;;;;;;51.28;24.73;;;;;;;;;;4850530;29;20195;-75
2023/03/10 10:23:33;;;;;;;45.85;22.45;;;;;;;;;;4850548;29;20478;-75
2023/03/10 10:26:01;;;;;;;49.47;23.95;;;;;;;;;;4840298;29;20048;-75
2023/03/10 10:28:40;;;;;;;47.88;22.33;;;;;;;;;;4850692;29;20045;-75
2023/03/10 10:31:12;;;;;;;47.90;22.73;;;;;;;;;;4849000;29;20056;-76
2023/03/10 10:33:58;;;;;;;48.28;24.30;;;;;;;;;;4850307;29;20098;-76
2023/03/10 10:36:26;;;;;;;45.80;21.73;;;;;;;;;;4850202;29;20045;-76
2023/03/10 10:38:54;;;;;;;43.03;21.70;;;;;;;;;;4849359;29;20037;-76
2023/03/10 10:41:31;;;;;;;49.55;24.85;;;;;;;;;;4867209;29;20053;-76
2023/03/10 10:44:14;;;;;;;46.58;22.55;;;;;;;;;;4850625;29;20045;-76
2023/03/10 10:46:50;;;;;;;42.70;22.75;;;;;;;;;;4843192;29;20139;-77
2023/03/10 10:49:22;;;;;;;46.42;24.48;;;;;;;;;;4849877;29;20418;-76
2023/03/10 10:51:56;;;;;;;38.75;22.48;;;;;;;;;;4851105;29;20497;-76
2023/03/10 10:54:27;;;;;;;34.92;18.42;;;;;;;;;;4849253;29;20207;-76
2023/03/10 10:56:55;;;;;;;42.00;25.27;;;;;;;;;;4854761;29;20417;-76
2023/03/10 10:59:22;;;;;;;42.05;24.38;;;;;;;;;;4850542;29;20045;-76
2023/03/10 11:01:59;;;;;;;39.38;19.08;;;;;;;;;;4852120;29;20068;-76
2023/03/10 11:04:26;;;;;;;38.15;19.15;;;;;;;;;;4857082;29;20080;-76
2023/03/10 11:06:53;;;;;;;44.58;21.30;;;;;;;;;;4840068;29;20053;-76
2023/03/10 11:09:20;;;;;;;37.00;21.25;;;;;;;;;;4840364;29;20918;-76
2023/03/10 11:11:52;;;;;;;34.42;18.40;;;;;;;;;;4852002;29;20056;-76
2023/03/10 11:14:18;;;;;;;42.60;23.85;;;;;;;;;;4852794;29;20073;-76
2023/03/10 11:16:53;;;;;;;40.35;21.85;;;;;;;;;;4842143;29;20108;-76
2023/03/10 11:19:39;;;;;;;42.25;23.17;;;;;;;;;;4854925;29;20091;-75
2023/03/10 11:22:24;;;;;;;40.97;21.95;;;;;;;;;;4852935;29;20382;-76
2023/03/10 11:24:54;;;;;;;38.17;19.35;;;;;;;;;;4839479;29;20056;-76
2023/03/10 11:27:20;;;;;;;39.08;21.50;;;;;;;;;;4839255;29;20102;-76
2023/03/10 11:29:49;;;;;;;32.90;20.58;;;;;;;;;;4853060;29;20049;-76
2023/03/10 11:32:19;;;;;;;38.63;21.60;;;;;;;;;;4868699;29;20469;-76
2023/03/10 11:34:54;;;;;;;31.00;18.10;;;;;;;;;;4847620;29;20047;-75
2023/03/10 11:37:28;;;;;;;35.65;20.17;;;;;;;;;;4838634;29;20053;-75
2023/03/10 11:39:54;;;;;;;;;;;;;;;;;;4854910;29;20060;-75
2023/03/10 11:42:27;;;;;;;29.25;17.70;;;;;;;;;;4867885;29;19928;-77
2023/03/10 11:45:04;;;;;;;34.88;19.25;;;;;;;;;;4852527;29;20083;-76
2023/03/10 11:47:56;;;;;;;35.70;19.98;;;1.80;99.90;;;;;;4852642;29;20056;-76
2023/03/10 11:50:42;;;;;;;33.67;20.38;;;;;;;;;;4851759;29;20061;-76
2023/03/10 11:53:14;;;;;;;36.78;20.00;;;;;;;;;;4852592;29;20057;-74
2023/03/10 11:55:41;;;;;;;25.20;14.20;;;;;;;;;;4851730;29;20041;-75
2023/03/10 11:58:14;;;;;;;33.80;20.13;;;;;;;;;;4850973;29;20049;-75
2023/03/10 12:00:42;;;;;;;26.92;16.67;;;;;;;;;;4849724;29;20065;-76
2023/03/10 12:03:26;;;;;;;33.03;19.50;;;;;;;;;;4851950;29;20052;-75
2023/03/10 12:05:58;;;;;;;27.80;17.08;;;;;;;;;;4839133;29;20048;-75
2023/03/10 12:08:25;;;;;;;28.30;17.23;;;;;;;;;;4852602;29;20643;-75
2023/03/10 12:10:52;;;;;;;33.15;18.95;;;;;;;;;;4850719;29;20050;-73
2023/03/10 12:13:22;;;;;;;34.40;19.73;;;;;;;;;;4852925;29;20494;-76
2023/03/10 12:15:49;;;;;;;33.42;19.40;;;;;;;;;;4841221;29;20037;-75
2023/03/10 12:18:15;;;;;;;33.75;20.20;;;;;;;;;;4858361;29;20049;-74
2023/03/10 12:20:41;;;;;;;35.20;20.92;;;;;;;;;;4839272;29;20173;-76
2023/03/10 12:23:10;;;;;;;36.13;20.70;;;;;;;;;;4853592;29;20049;-75
2023/03/10 12:25:39;;;;;;;36.35;22.15;;;;;;;;;;4833990;29;20073;-75
2023/03/10 12:28:17;;;;;;;34.72;19.73;;;;;;;;;;4851796;29;20048;-75
2023/03/10 12:30:49;;;;;;;37.05;23.08;;;;;;;;;;4850186;29;20076;-75
2023/03/10 12:33:40;;;;;;;33.33;19.88;;;;;;;;;;4849850;29;20060;-75
2023/03/10 12:36:25;;;;;;;38.70;21.80;;;;;;;;;;4843167;29;20121;-76
2023/03/10 12:38:58;;;;;;;30.80;18.08;;;;;;;;;;4851625;29;20701;-76
2023/03/10 12:41:27;;;;;;;31.02;18.60;;;;;;;;;;4866390;29;20460;-75
2023/03/10 12:43:57;;;;;;;33.53;19.83;;;;;;;;;;4841649;29;20787;-76
2023/03/10 12:46:27;;;;;;;33.15;20.17;;;;;;;;;;4833442;29;20059;-77
2023/03/10 12:49:02;;;;;;;37.70;21.05;;;;;;;;;;4845623;29;20055;-76
2023/03/10 12:51:28;;;;;;;31.50;19.27;;;;;;;;;;4847024;29;20084;-76
2023/03/10 12:54:21;;;;;;;29.67;18.55;;;;;;;;;;4846287;29;20049;-76
2023/03/10 12:57:10;;;;;;;34.85;19.30;;;;;;;;;;4817586;29;20131;-77
2023/03/10 12:59:56;;;;;;;29.08;17.67;;;;;;;;;;4815758;29;20084;-77
2023/03/10 13:02:22;;;;;;;31.73;19.33;;;;;;;;;;4851313;29;20093;-79
2023/03/10 13:04:49;;;;;;;30.45;18.73;;;;;;;;;;4855973;29;20055;-78
2023/03/10 13:07:16;;;;;;;29.63;17.70;;;;;;;;;;4852356;29;20054;-78
2023/03/10 13:09:45;;;;;;;33.33;18.35;;;;;;;;;;4815161;29;20052;-78
2023/03/10 13:12:24;;;;;;;30.30;18.83;;;;;;;;;;4842644;29;20182;-77
2023/03/10 13:14:54;;;;;;;32.80;18.63;;;;;;;;;;4846360;29;20049;-78
2023/03/10 13:17:25;;;;;;;28.48;17.08;;;;;;;;;;4845023;29;20056;-77
2023/03/10 13:19:59;;;;;;;25.38;15.55;;;;;;;;;;4862458;29;20541;-77
2023/03/10 13:22:25;;;;;;;28.95;17.60;;;;;;;;;;4846077;29;20083;-77
2023/03/10 13:25:00;;;;;;;35.55;19.70;;;;;;;;;;4844718;29;20478;-76
2023/03/10 13:27:29;;;;;;;32.38;19.73;;;;;;;;;;4831392;29;20708;-76
2023/03/10 13:29:56;;;;;;;32.17;18.42;;;;;;;;;;4846517;29;20136;-77
2023/03/10 13:32:22;;;;;;;30.13;17.88;;;;;;;;;;4829780;29;20050;-77
2023/03/10 13:34:48;;;;;;;31.17;18.90;;;;;;;;;;4834878;29;20139;-77
2023/03/10 13:37:14;;;;;;;33.13;19.73;;;;;;;;;;4843836;29;20045;-77
2023/03/10 13:39:41;;;;;;;30.98;20.10;;;;;;;;;;4844666;29;20053;-78
2023/03/10 13:42:18;;;;;;;27.80;18.48;;;;;;;;;;4831698;29;20116;-78
2023/03/10 13:44:46;;;;;;;31.25;18.25;;;;;;;;;;4845979;29;20037;-79
2023/03/10 13:47:15;;;;;;;32.72;19.25;;;;;;;;;;4832718;29;20108;-78
2023/03/10 13:49:43;;;;;;;33.10;20.88;;;;;;;;;;4847247;29;20054;-78
2023/03/10 13:52:12;;;;;;;34.28;20.33;;;;;;;;;;4849714;29;20120;-78
2023/03/10 13:54:40;;;;;;;32.17;17.88;;;;;;;;;;4847669;29;20064;-78
2023/03/10 13:57:15;;;;;;;35.72;20.60;;;;;;;;;;4845749;29;20093;-78
2023/03/10 13:59:41;;;;;;;24.65;16.30;;;;;;;;;;4843643;29;20241;-77
2023/03/10 14:02:17;;;;;;;36.40;21.52;;;;;;;;;;4831315;29;20081;-79
2023/03/10 14:04:48;;;;;;;34.25;19.60;;;;;;;;;;4847079;29;20597;-77
2023/03/10 14:07:22;;;;;;;33.33;18.45;;;;;;;;;;4849604;29;20052;-77
2023/03/10 14:10:09;;;;;;;39.83;20.83;;;;;;;;;;4853961;29;20137;-77
2023/03/10 14:12:36;;;;;;;39.80;21.55;;;;;;;;;;4846031;29;20526;-77
2023/03/10 14:15:21;;;;;;;36.92;20.75;;;;;;;;;;4845142;29;20049;-77
2023/03/10 14:18:05;;;;;;;36.85;21.63;;;;;;;;;;4842689;29;20053;-76
2023/03/10 14:20:31;;;;;;;;;;;;;;;;;;4847776;29;20092;-76
2023/03/10 14:22:58;;;;;;;41.83;23.15;;;;;;;;;;4831108;29;19931;-77
2023/03/10 14:25:24;;;;;;;34.00;20.45;;;;;;;;;;4845613;29;20057;-77